createdAt,value
2019-05-21T00:01:59.280Z,16.60
2019-05-21T00:04:28.719Z,16.87
2019-05-21T00:06:57.732Z,18.50
2019-05-21T00:09:26.705Z,19.00
2019-05-21T00:11:55.570Z,16.70
2019-05-21T00:14:24.492Z,17.75
2019-05-21T00:16:53.337Z,15.98
2019-05-21T00:19:22.221Z,17.85
2019-05-21T00:21:51.180Z,17.92
2019-05-21T00:24:20.054Z,17.62
2019-05-21T00:26:48.988Z,16.85
2019-05-21T00:29:54.135Z,16.73
2019-05-21T00:32:59.291Z,16.70
2019-05-21T00:36:04.573Z,17.23
2019-05-21T00:39:09.860Z,17.12
2019-05-21T00:42:02.595Z,18.27
2019-05-21T00:44:40.589Z,17.70
2019-05-21T00:47:12.051Z,16.35
2019-05-21T00:49:40.928Z,17.05
2019-05-21T00:52:09.910Z,18.30
2019-05-21T00:54:38.938Z,17.57
2019-05-21T00:57:07.827Z,18.48
2019-05-21T00:59:36.698Z,20.20
2019-05-21T01:02:05.655Z,18.65
2019-05-21T01:04:34.598Z,19.30
2019-05-21T01:07:03.487Z,18.62
2019-05-21T01:09:32.441Z,19.98
2019-05-21T01:12:01.337Z,20.50
2019-05-21T01:14:30.177Z,18.37
2019-05-21T01:16:59.075Z,17.30
2019-05-21T01:19:27.917Z,21.02
2019-05-21T01:21:56.908Z,17.65
2019-05-21T01:24:25.778Z,20.30
2019-05-21T01:26:54.700Z,20.10
2019-05-21T01:29:23.612Z,18.62
2019-05-21T01:31:52.545Z,18.15
2019-05-21T01:34:21.403Z,18.67
2019-05-21T01:36:50.448Z,20.10
2019-05-21T01:39:19.349Z,19.37
2019-05-21T01:41:48.292Z,18.98
2019-05-21T01:44:17.211Z,20.82
2019-05-21T01:46:46.164Z,19.95
2019-05-21T01:49:14.979Z,19.62
2019-05-21T01:51:43.924Z,19.02
2019-05-21T01:54:12.799Z,18.52
2019-05-21T01:56:41.720Z,18.85
2019-05-21T01:59:10.603Z,22.80
2019-05-21T02:01:39.528Z,19.05
2019-05-21T02:04:08.380Z,19.90
2019-05-21T02:06:37.334Z,20.77
2019-05-21T02:09:07.464Z,20.48
2019-05-21T02:11:36.311Z,19.82
2019-05-21T02:14:05.375Z,22.73
2019-05-21T02:16:34.293Z,22.42
2019-05-21T02:19:03.163Z,21.12
2019-05-21T02:21:32.132Z,20.27
2019-05-21T02:24:01.045Z,19.07
2019-05-21T02:26:29.947Z,21.90
2019-05-21T02:28:58.822Z,19.65
2019-05-21T02:31:27.763Z,21.27
2019-05-21T02:33:56.726Z,22.13
2019-05-21T02:36:25.564Z,20.35
2019-05-21T02:38:54.490Z,21.17
2019-05-21T02:41:23.415Z,22.30
2019-05-21T02:43:52.291Z,22.05
2019-05-21T02:46:21.198Z,22.95
2019-05-21T02:48:50.079Z,23.75
2019-05-21T02:51:19.003Z,21.82
2019-05-21T02:53:47.958Z,21.05
2019-05-21T02:56:16.803Z,23.50
2019-05-21T02:58:45.723Z,22.65
2019-05-21T03:01:31.263Z,24.15
2019-05-21T03:04:00.198Z,22.05
2019-05-21T03:06:29.072Z,21.37
2019-05-21T03:08:58.035Z,22.32
2019-05-21T03:11:26.921Z,20.88
2019-05-21T03:13:55.801Z,21.10
2019-05-21T03:16:24.756Z,23.65
2019-05-21T03:18:53.661Z,22.70
2019-05-21T03:21:22.556Z,24.45
2019-05-21T03:23:51.440Z,24.40
2019-05-21T03:26:20.332Z,25.85
2019-05-21T03:28:49.266Z,23.73
2019-05-21T03:31:18.193Z,23.30
2019-05-21T03:33:47.077Z,25.05
2019-05-21T03:36:31.893Z,25.15
2019-05-21T03:38:46.548Z,24.07
2019-05-21T03:41:15.434Z,22.85
2019-05-21T03:43:44.325Z,22.85
2019-05-21T03:46:13.283Z,21.55
2019-05-21T03:48:42.189Z,23.25
2019-05-21T03:51:11.071Z,21.93
2019-05-21T03:53:40.000Z,21.97
2019-05-21T03:56:08.894Z,21.93
2019-05-21T03:58:37.822Z,21.10
2019-05-21T04:01:06.665Z,20.48
2019-05-21T04:03:35.579Z,21.48
2019-05-21T04:06:04.458Z,21.30
2019-05-21T04:08:33.395Z,19.80
2019-05-21T04:11:02.272Z,21.02
2019-05-21T04:13:31.153Z,20.37
2019-05-21T04:16:19.801Z,20.15
2019-05-21T04:19:05.647Z,19.82
2019-05-21T04:21:34.539Z,18.35
2019-05-21T04:24:03.459Z,21.12
2019-05-21T04:26:32.304Z,20.35
2019-05-21T04:29:01.261Z,19.75
2019-05-21T04:31:30.178Z,19.37
2019-05-21T04:33:59.061Z,19.17
2019-05-21T04:36:28.005Z,20.17
2019-05-21T04:38:56.891Z,19.80
2019-05-21T04:41:25.778Z,18.75
2019-05-21T04:43:54.697Z,18.15
2019-05-21T04:46:23.589Z,18.30
2019-05-21T04:48:52.507Z,18.02
2019-05-21T04:51:21.429Z,19.12
2019-05-21T04:53:50.357Z,17.10
2019-05-21T04:56:19.286Z,19.50
2019-05-21T04:58:48.164Z,18.52
2019-05-21T05:01:17.065Z,17.27
2019-05-21T05:03:45.981Z,18.92
2019-05-21T05:06:14.869Z,17.12
2019-05-21T05:08:43.811Z,16.55
2019-05-21T05:11:12.719Z,18.17
2019-05-21T05:13:41.632Z,17.98
2019-05-21T05:16:10.571Z,16.75
2019-05-21T05:18:39.447Z,17.05
2019-05-21T05:21:08.340Z,17.32
2019-05-21T05:23:37.208Z,17.98
2019-05-21T05:26:06.047Z,18.37
2019-05-21T05:28:34.937Z,16.62
2019-05-21T05:31:03.884Z,18.60
2019-05-21T05:33:32.814Z,17.62
2019-05-21T05:36:01.703Z,18.10
2019-05-21T05:38:30.670Z,18.17
2019-05-21T05:40:59.540Z,17.65
2019-05-21T05:43:28.383Z,17.32
2019-05-21T05:45:57.395Z,17.20
2019-05-21T05:48:26.873Z,16.37
2019-05-21T05:51:00.181Z,17.00
2019-05-21T05:53:29.126Z,15.13
2019-05-21T05:55:58.043Z,15.45
2019-05-21T05:58:27.029Z,13.18
2019-05-21T06:00:55.943Z,14.33
2019-05-21T06:03:24.822Z,13.62
2019-05-21T06:05:53.758Z,14.47
2019-05-21T06:08:22.668Z,13.05
2019-05-21T06:10:51.516Z,12.65
2019-05-21T06:13:20.487Z,12.70
2019-05-21T06:15:49.370Z,12.15
2019-05-21T06:18:18.258Z,12.37
2019-05-21T06:20:47.212Z,12.07
2019-05-21T06:23:16.101Z,12.05
2019-05-21T06:25:44.946Z,11.15
2019-05-21T06:28:13.951Z,11.93
2019-05-21T06:30:42.820Z,12.40
2019-05-21T06:33:11.708Z,12.20
2019-05-21T06:35:40.611Z,11.68
2019-05-21T06:38:17.585Z,11.05
2019-05-21T06:40:39.994Z,12.40
2019-05-21T06:43:08.990Z,11.65
2019-05-21T06:45:37.876Z,11.28
2019-05-21T06:48:06.713Z,9.70
2019-05-21T06:50:37.660Z,9.88
2019-05-21T06:53:06.215Z,9.77
2019-05-21T06:55:35.153Z,9.63
2019-05-21T06:58:04.098Z,10.15
2019-05-21T07:00:32.950Z,10.48
2019-05-21T07:03:01.793Z,9.75
2019-05-21T07:05:30.709Z,10.65
2019-05-21T07:07:59.616Z,10.80
2019-05-21T07:10:28.477Z,10.48
2019-05-21T07:12:57.406Z,9.78
2019-05-21T07:15:26.257Z,9.40
2019-05-21T07:17:55.207Z,10.10
2019-05-21T07:20:24.389Z,9.75
2019-05-21T07:22:53.290Z,10.55
2019-05-21T07:25:22.347Z,10.10
2019-05-21T07:27:51.272Z,10.70
2019-05-21T07:30:21.596Z,10.65
2019-05-21T07:32:50.596Z,10.80
2019-05-21T07:35:19.451Z,10.78
2019-05-21T07:37:48.339Z,10.40
2019-05-21T07:40:17.489Z,10.53
2019-05-21T07:42:46.340Z,10.72
2019-05-21T07:45:15.861Z,11.15
2019-05-21T07:47:44.774Z,11.38
2019-05-21T07:50:13.985Z,11.38
2019-05-21T07:52:42.872Z,11.57
2019-05-21T07:55:11.941Z,11.25
2019-05-21T07:57:40.799Z,11.63
2019-05-21T08:00:10.956Z,11.85
2019-05-21T08:02:39.843Z,11.83
2019-05-21T08:05:08.767Z,11.78
2019-05-21T08:07:37.696Z,11.83
2019-05-21T08:10:09.026Z,11.53
2019-05-21T08:12:39.852Z,11.45
2019-05-21T08:15:08.985Z,11.43
2019-05-21T08:17:37.867Z,12.15
2019-05-21T08:20:10.381Z,11.45
2019-05-21T08:22:39.285Z,11.40
2019-05-21T08:25:08.241Z,11.28
2019-05-21T08:27:37.143Z,11.10
2019-05-21T08:30:06.781Z,11.18
2019-05-21T08:32:35.667Z,9.73
2019-05-21T08:35:05.454Z,10.88
2019-05-21T08:37:34.408Z,10.32
2019-05-21T08:40:04.323Z,10.63
2019-05-21T08:42:33.318Z,11.33
2019-05-21T08:45:02.790Z,9.73
2019-05-21T08:47:32.482Z,10.53
2019-05-21T08:50:01.487Z,10.38
2019-05-21T08:52:30.341Z,9.85
2019-05-21T08:54:59.224Z,9.93
2019-05-21T08:57:28.184Z,9.65
2019-05-21T08:59:57.095Z,9.55
2019-05-21T09:02:26.778Z,9.98
2019-05-21T09:04:55.659Z,9.25
2019-05-21T09:07:24.504Z,9.93
2019-05-21T09:09:53.527Z,9.60
2019-05-21T09:12:22.432Z,8.70
2019-05-21T09:14:51.271Z,9.03
2019-05-21T09:17:20.205Z,9.03
2019-05-21T09:19:49.030Z,8.95
2019-05-21T09:22:17.907Z,9.05
2019-05-21T09:24:46.811Z,9.28
2019-05-21T09:27:15.748Z,8.30
2019-05-21T09:29:44.654Z,8.33
2019-05-21T09:32:13.534Z,8.93
2019-05-21T09:34:48.856Z,8.78
2019-05-21T09:37:19.687Z,8.48
2019-05-21T09:39:43.784Z,8.00
2019-05-21T09:42:12.668Z,8.33
2019-05-21T09:44:41.591Z,7.05
2019-05-21T09:47:10.460Z,6.80
2019-05-21T09:49:39.420Z,7.08
2019-05-21T09:52:08.316Z,7.28
2019-05-21T09:54:37.166Z,6.87
2019-05-21T09:57:07.681Z,6.90
2019-05-21T09:59:50.406Z,6.95
2019-05-21T10:02:20.920Z,6.90
2019-05-21T10:04:49.851Z,6.92
2019-05-21T10:07:36.002Z,6.40
2019-05-21T10:09:49.273Z,6.60
2019-05-21T10:12:18.193Z,6.03
2019-05-21T10:14:47.027Z,5.90
2019-05-21T10:17:15.978Z,4.65
2019-05-21T10:19:44.822Z,4.20
2019-05-21T10:22:13.787Z,4.28
2019-05-21T10:24:42.704Z,3.50
2019-05-21T10:27:11.546Z,3.40
2019-05-21T10:29:40.468Z,2.98
2019-05-21T10:32:09.342Z,3.02
2019-05-21T10:34:38.326Z,2.90
2019-05-21T10:37:07.287Z,2.80
2019-05-21T10:39:36.191Z,2.90
2019-05-21T10:42:05.373Z,2.30
2019-05-21T10:44:34.617Z,2.40
2019-05-21T10:47:03.590Z,2.27
2019-05-21T10:49:32.492Z,2.15
2019-05-21T10:52:01.322Z,2.58
2019-05-21T10:54:30.209Z,3.10
2019-05-21T10:56:59.122Z,2.70
2019-05-21T10:59:27.941Z,2.85
2019-05-21T11:02:04.213Z,2.77
2019-05-21T11:04:34.739Z,3.22
2019-05-21T11:07:03.723Z,2.87
2019-05-21T11:09:32.791Z,2.60
2019-05-21T11:12:01.712Z,2.98
2019-05-21T11:14:30.541Z,2.90
2019-05-21T11:16:59.445Z,3.05
2019-05-21T11:19:28.286Z,2.95
2019-05-21T11:21:57.190Z,3.33
2019-05-21T11:24:26.132Z,3.40
2019-05-21T11:26:55.056Z,3.00
2019-05-21T11:29:23.938Z,4.00
2019-05-21T11:31:57.288Z,3.80
2019-05-21T11:34:23.372Z,3.80
2019-05-21T11:36:52.254Z,3.40
2019-05-21T11:39:21.200Z,3.55
2019-05-21T11:41:51.711Z,3.65
2019-05-21T11:44:20.759Z,3.80
2019-05-21T11:46:50.523Z,4.25
2019-05-21T11:49:19.382Z,4.28
2019-05-21T11:51:48.254Z,3.95
2019-05-21T11:54:17.170Z,3.72
2019-05-21T11:56:46.106Z,3.60
2019-05-21T11:59:15.065Z,4.10
2019-05-21T12:01:43.899Z,5.00
2019-05-21T12:04:12.816Z,5.30
2019-05-21T12:06:41.726Z,5.30
2019-05-21T12:09:10.644Z,5.37
2019-05-21T12:11:39.527Z,5.12
2019-05-21T12:14:08.428Z,5.25
2019-05-21T12:16:37.313Z,5.37
2019-05-21T12:19:08.097Z,5.70
2019-05-21T12:21:37.066Z,5.97
2019-05-21T12:24:05.908Z,6.15
2019-05-21T12:26:34.781Z,5.85
2019-05-21T12:29:03.736Z,5.70
2019-05-21T12:31:32.589Z,5.97
2019-05-21T12:34:01.474Z,5.78
2019-05-21T12:36:30.340Z,5.72
2019-05-21T12:39:13.049Z,5.35
2019-05-21T12:41:29.908Z,6.00
2019-05-21T12:43:58.799Z,5.85
2019-05-21T12:46:27.699Z,5.75
2019-05-21T12:48:56.636Z,5.70
2019-05-21T12:51:25.509Z,5.53
2019-05-21T12:53:54.384Z,5.55
2019-05-21T12:56:23.368Z,5.70
2019-05-21T12:58:52.246Z,5.30
2019-05-21T13:01:21.126Z,5.78
2019-05-21T13:03:50.068Z,5.58
2019-05-21T13:06:18.918Z,4.90
2019-05-21T13:08:47.780Z,5.20
2019-05-21T13:11:16.713Z,5.25
2019-05-21T13:13:45.603Z,4.97
2019-05-21T13:16:14.515Z,5.75
2019-05-21T13:18:43.425Z,5.50
2019-05-21T13:21:12.313Z,5.30
2019-05-21T13:23:41.260Z,4.72
2019-05-21T13:26:10.152Z,5.10
2019-05-21T13:28:38.990Z,5.33
2019-05-21T13:31:07.919Z,5.08
2019-05-21T13:33:36.852Z,5.17
2019-05-21T13:36:05.932Z,4.97
2019-05-21T13:38:34.791Z,4.95
2019-05-21T13:41:05.198Z,5.03
2019-05-21T13:43:34.085Z,5.42
2019-05-21T13:46:02.990Z,4.90
2019-05-21T13:48:31.882Z,4.87
2019-05-21T13:51:00.797Z,4.95
2019-05-21T13:53:29.666Z,5.10
2019-05-21T13:55:58.536Z,4.90
2019-05-21T13:58:27.562Z,4.80
2019-05-21T14:00:56.473Z,4.28
2019-05-21T14:03:25.304Z,4.80
2019-05-21T14:05:54.212Z,4.60
2019-05-21T14:08:23.102Z,4.58
2019-05-21T14:10:52.146Z,5.10
2019-05-21T14:13:21.324Z,4.45
2019-05-21T14:15:50.332Z,4.40
2019-05-21T14:18:19.274Z,4.47
2019-05-21T14:20:48.209Z,4.33
2019-05-21T14:23:17.139Z,3.80
2019-05-21T14:25:45.979Z,3.67
2019-05-21T14:28:14.910Z,3.62
2019-05-21T14:30:43.828Z,3.75
2019-05-21T14:33:12.722Z,2.92
2019-05-21T14:35:41.632Z,3.10
2019-05-21T14:38:10.522Z,2.50
2019-05-21T14:40:39.378Z,2.58
2019-05-21T14:43:08.296Z,2.45
2019-05-21T14:45:37.175Z,2.55
2019-05-21T14:48:06.049Z,2.90
2019-05-21T14:50:35.007Z,3.20
2019-05-21T14:53:03.987Z,2.90
2019-05-21T14:55:32.861Z,3.15
2019-05-21T14:58:01.858Z,3.30
2019-05-21T15:00:32.780Z,3.25
2019-05-21T15:03:01.611Z,3.47
2019-05-21T15:05:30.529Z,3.75
2019-05-21T15:07:59.461Z,3.92
2019-05-21T15:10:28.380Z,3.20
2019-05-21T15:12:57.274Z,3.10
2019-05-21T15:15:26.162Z,3.27
2019-05-21T15:17:55.154Z,3.17
2019-05-21T15:20:31.690Z,3.40
2019-05-21T15:23:00.659Z,3.65
2019-05-21T15:25:29.549Z,3.40
2019-05-21T15:27:58.725Z,3.95
2019-05-21T15:30:27.719Z,3.37
2019-05-21T15:32:56.554Z,4.00
2019-05-21T15:35:25.499Z,4.85
2019-05-21T15:37:54.372Z,4.75
2019-05-21T15:40:23.864Z,5.17
2019-05-21T15:42:53.692Z,4.90
2019-05-21T15:45:22.925Z,4.58
2019-05-21T15:47:51.867Z,5.05
2019-05-21T15:50:20.757Z,4.90
2019-05-21T15:52:49.561Z,5.28
2019-05-21T15:55:18.514Z,5.53
2019-05-21T15:57:47.395Z,5.87
2019-05-21T16:00:16.887Z,5.47
2019-05-21T16:02:45.794Z,6.20
2019-05-21T16:05:15.955Z,6.53
2019-05-21T16:07:44.842Z,6.30
2019-05-21T16:10:14.017Z,7.12
2019-05-21T16:12:42.965Z,7.25
2019-05-21T16:15:11.808Z,7.15
2019-05-21T16:17:40.694Z,8.13
2019-05-21T16:20:10.218Z,7.17
2019-05-21T16:22:39.019Z,8.33
2019-05-21T16:25:08.641Z,8.10
2019-05-21T16:27:37.567Z,7.75
2019-05-21T16:30:09.730Z,8.00
2019-05-21T16:32:38.869Z,7.70
2019-05-21T16:35:09.242Z,8.40
2019-05-21T16:37:40.805Z,8.10
2019-05-21T16:40:11.304Z,7.60
2019-05-21T16:42:40.354Z,7.80
2019-05-21T16:45:10.029Z,7.60
2019-05-21T16:47:45.477Z,7.33
2019-05-21T16:50:09.895Z,7.10
2019-05-21T16:52:39.012Z,6.58
2019-05-21T16:55:08.806Z,6.85
2019-05-21T16:57:37.809Z,8.13
2019-05-21T17:00:10.808Z,7.50
2019-05-21T17:02:40.417Z,7.10
2019-05-21T17:05:09.564Z,7.58
2019-05-21T17:07:38.602Z,7.05
2019-05-21T17:10:08.851Z,6.78
2019-05-21T17:12:37.816Z,7.25
2019-05-21T17:15:09.031Z,5.97
2019-05-21T17:20:08.358Z,5.83
2019-05-21T17:22:37.430Z,5.37
2019-05-21T17:25:07.576Z,6.03
2019-05-21T17:27:36.446Z,5.92
2019-05-21T17:30:11.919Z,6.08
2019-05-21T17:32:41.174Z,6.40
2019-05-21T17:35:10.312Z,6.00
2019-05-21T17:37:39.225Z,5.87
2019-05-21T17:40:08.660Z,5.45
2019-05-21T17:42:38.040Z,5.65
2019-05-21T17:45:08.562Z,6.08
2019-05-21T17:47:37.439Z,5.83
2019-05-21T17:50:08.525Z,5.83
2019-05-21T17:52:37.472Z,6.58
2019-05-21T17:55:06.659Z,6.25
2019-05-21T17:57:35.928Z,6.25
2019-05-21T18:00:10.620Z,6.55
2019-05-21T18:02:39.742Z,6.97
2019-05-21T18:05:09.349Z,6.75
2019-05-21T18:07:39.736Z,6.62
2019-05-21T18:10:11.522Z,7.37
2019-05-21T18:12:40.848Z,7.10
2019-05-21T18:15:11.739Z,7.53
2019-05-21T18:17:41.435Z,7.00
2019-05-21T18:20:13.006Z,7.67
2019-05-21T18:22:43.718Z,7.17
2019-05-21T18:25:12.745Z,7.15
2019-05-21T18:27:41.572Z,8.65
2019-05-21T18:30:12.224Z,7.40
2019-05-21T18:32:41.273Z,7.70
2019-05-21T18:35:10.787Z,7.90
2019-05-21T18:37:39.894Z,8.18
2019-05-21T18:40:09.439Z,7.92
2019-05-21T18:42:38.356Z,7.85
2019-05-21T18:45:07.754Z,7.75
2019-05-21T18:47:36.647Z,8.63
2019-05-21T18:50:09.337Z,8.85
2019-05-21T18:52:38.332Z,9.33
2019-05-21T18:55:07.404Z,9.33
2019-05-21T18:57:36.452Z,9.55
2019-05-21T19:00:07.475Z,10.50
2019-05-21T19:02:36.359Z,10.50
2019-05-21T19:05:07.043Z,10.28
2019-05-21T19:07:36.338Z,10.03
2019-05-21T19:10:09.555Z,10.43
2019-05-21T19:12:38.990Z,10.08
2019-05-21T19:15:10.062Z,9.90
2019-05-21T19:17:38.927Z,9.90
2019-05-21T19:20:09.806Z,9.15
2019-05-21T19:22:38.817Z,9.88
2019-05-21T19:25:08.282Z,10.45
2019-05-21T19:27:37.168Z,10.10
2019-05-21T19:30:07.592Z,10.72
2019-05-21T19:32:36.586Z,10.00
2019-05-21T19:35:06.462Z,9.90
2019-05-21T19:37:35.490Z,10.38
2019-05-21T19:40:06.130Z,10.65
2019-05-21T19:42:35.044Z,8.43
2019-05-21T19:45:06.809Z,10.30
2019-05-21T19:47:35.864Z,10.00
2019-05-21T19:50:06.601Z,10.23
2019-05-21T19:52:35.512Z,9.43
2019-05-21T19:55:06.204Z,9.95
2019-05-21T19:57:36.220Z,10.70
2019-05-21T20:00:07.449Z,9.65
2019-05-21T20:02:36.500Z,10.58
2019-05-21T20:05:08.006Z,9.80
2019-05-21T20:10:07.288Z,10.25
2019-05-21T20:12:36.618Z,10.60
2019-05-21T20:15:09.715Z,11.68
2019-05-21T20:17:40.287Z,11.75
2019-05-21T20:20:10.422Z,10.80
2019-05-21T20:22:41.227Z,11.45
2019-05-21T20:25:11.099Z,11.18
2019-05-21T20:27:40.613Z,11.22
2019-05-21T20:30:13.154Z,11.80
2019-05-21T20:32:43.085Z,12.68
2019-05-21T20:35:12.430Z,12.33
2019-05-21T20:37:41.255Z,12.78
2019-05-21T20:40:11.486Z,12.45
2019-05-21T20:42:41.327Z,12.18
2019-05-21T20:45:12.927Z,12.68
2019-05-21T20:47:42.213Z,13.83
2019-05-21T20:50:13.404Z,12.30
2019-05-21T20:52:42.980Z,12.80
2019-05-21T20:55:12.829Z,13.03
2019-05-21T20:57:42.412Z,13.03
2019-05-21T21:00:13.474Z,11.93
2019-05-21T21:02:42.722Z,12.80
2019-05-21T21:05:12.670Z,13.45
2019-05-21T21:07:42.492Z,13.48
2019-05-21T21:10:12.181Z,13.08
2019-05-21T21:12:41.633Z,12.40
2019-05-21T21:15:12.689Z,12.50
2019-05-21T21:17:41.578Z,13.40
2019-05-21T21:20:11.077Z,13.05
2019-05-21T21:22:40.376Z,13.13
2019-05-21T21:25:10.422Z,15.03
2019-05-21T21:27:39.426Z,13.78
2019-05-21T21:30:09.489Z,13.13
2019-05-21T21:32:38.580Z,12.95
2019-05-21T21:35:09.316Z,13.00
2019-05-21T21:37:38.216Z,13.22
2019-05-21T21:40:10.482Z,13.50
2019-05-21T21:42:40.611Z,13.60
2019-05-21T21:45:10.057Z,13.25
2019-05-21T21:47:40.040Z,12.85
2019-05-21T21:50:10.493Z,13.43
2019-05-21T21:52:39.884Z,12.20
2019-05-21T21:55:09.098Z,13.95
2019-05-21T21:57:38.168Z,14.13
2019-05-21T22:00:30.569Z,12.70
2019-05-21T22:03:02.389Z,13.08
2019-05-21T22:05:32.303Z,12.98
2019-05-21T22:08:01.248Z,11.80
2019-05-21T22:10:30.436Z,13.88
2019-05-21T22:12:59.861Z,12.15
2019-05-21T22:15:28.750Z,12.70
2019-05-21T22:17:57.952Z,12.82
2019-05-21T22:20:26.949Z,12.93
2019-05-21T22:22:56.233Z,12.55
2019-05-21T22:25:25.119Z,12.93
2019-05-21T22:27:54.503Z,12.50
2019-05-21T22:30:25.097Z,12.58
2019-05-21T22:32:54.124Z,13.33
2019-05-21T22:35:23.119Z,12.73
2019-05-21T22:37:51.997Z,12.93
2019-05-21T22:40:20.997Z,13.48
2019-05-21T22:42:49.926Z,13.32
2019-05-21T22:45:18.806Z,12.47
2019-05-21T22:47:47.757Z,12.45
2019-05-21T22:50:17.108Z,11.88
2019-05-21T22:52:45.950Z,13.60
2019-05-21T22:55:15.065Z,12.18
2019-05-21T22:57:43.911Z,13.48
2019-05-21T23:00:13.715Z,12.70
2019-05-21T23:02:45.014Z,12.95
2019-05-21T23:05:14.287Z,13.00
2019-05-21T23:07:43.984Z,13.50
2019-05-21T23:10:14.402Z,12.35
2019-05-21T23:12:43.408Z,13.60
2019-05-21T23:15:24.495Z,12.90
2019-05-21T23:17:43.309Z,13.60
2019-05-21T23:20:14.302Z,13.38
2019-05-21T23:22:45.101Z,13.22
2019-05-21T23:25:14.352Z,12.55
2019-05-21T23:27:43.688Z,13.60
2019-05-21T23:30:14.678Z,12.82
2019-05-21T23:32:44.259Z,13.80
2019-05-21T23:35:14.501Z,14.55
2019-05-21T23:37:46.697Z,12.93
2019-05-21T23:40:15.766Z,14.15
2019-05-21T23:42:44.762Z,13.10
2019-05-21T23:45:15.654Z,12.60
2019-05-21T23:47:44.488Z,14.13
2019-05-21T23:50:14.453Z,14.73
2019-05-21T23:52:44.585Z,13.13
2019-05-21T23:55:14.740Z,13.08
2019-05-21T23:57:44.245Z,13.43
